KSEM/SEM METAR and TAF weather

Enter ICAO airport designator
Station Type Date Time Source
KSEM METAR 2022/05/26 04:15 UTC NOAA

KSEM 260415Z AUTO 14007KT 3SM -DZ SCT007 BKN033 OVC060 21/21 A3005 RMK AO2 LTG DSNT E-SW


Station Type Date Time Source
KSEM Decoded METAR 2022/05/26 04:15 UTC NOAA

Craig Field / Selma, AL, United States (KSEM) 32-21N 086-59W
May 26, 2022 - 12:15 AM EDT / 2022.05.26 0415 UTC
Wind: from the SE (140 degrees) at 8 MPH (7 KT):0
Visibility: 3 mile(s):0
Sky conditions: overcast
Weather: light drizzle; Lightning observed
Temperature: 69 F (21 C)
Dew Point: 69 F (21 C)
Relative Humidity: 100%
Pressure (altimeter): 30.05 in. Hg (1017 hPa)
ob: KSEM 260415Z AUTO 14007KT 3SM -DZ SCT007 BKN033 OVC060 21/21 A3005 RMK AO2 LTG DSNT E-SW
cycle: 4

Station Type Date Time Source
KSEM TAF UTC NOAA

Error!

Example: see airport list